Time;durP1;ratioP1;P1;durP2;ratioP2;P2;SDS_P1;SDS_P2;PMS_P1;PMS_P2;Temp;Humidity;BMP_temperature;BMP_pressure;BME280_temperature;BME280_humidity;BME280_pressure;Samples;Min_cycle;Max_cycle;Signal;HPM_P1;HPM_P2
2022/07/15 00:00:13;;;;;;;6.80;3.10;;;;;;;;;;4731904;30;20075;-59
2022/07/15 00:02:40;;;;;;;6.15;3.40;;;;;;;;;;4731990;30;20051;-60
2022/07/15 00:05:08;;;;;;;3.70;2.55;;;;;;;;;;4732078;30;20045;-60
2022/07/15 00:07:36;;;;;;;9.63;3.45;;;;;;;;;;4732118;30;20049;-59
2022/07/15 00:10:21;;;;;;;3.45;2.67;;;;;;;;;;4733683;30;20057;-59
2022/07/15 00:12:51;;;;;;;5.80;2.63;;;;;;;;;;4735357;30;20057;-60
2022/07/15 00:15:21;;;;;;;5.00;3.88;;;;;;;;;;4735406;30;20041;-60
2022/07/15 00:17:50;;;;;;;9.32;2.45;;;;;;;;;;4735097;30;20409;-59
2022/07/15 00:20:19;;;;;;;5.97;3.40;;;;;;;;;;4735272;30;20060;-60
2022/07/15 00:22:46;;;;;;;5.57;3.65;;;;;;;;;;4734986;30;20056;-59
2022/07/15 00:25:15;;;;;;;4.10;3.17;;;;;;;;;;4735396;30;20045;-59
2022/07/15 00:28:00;;;;;;;6.43;5.03;;;;;;;;;;4734908;30;20048;-60
2022/07/15 00:30:40;;;;;;;6.75;3.42;;;;;;;;;;4735020;30;20049;-59
2022/07/15 00:33:09;;;;;;;6.15;3.67;;;;;;;;;;4735046;30;20066;-59
2022/07/15 00:35:38;;;;;;;4.53;3.13;;;;;;;;;;4719156;30;20044;-59
2022/07/15 00:38:09;;;;;;;6.53;4.25;;;;;;;;;;4734790;30;20080;-59
2022/07/15 00:40:43;;;;;;;6.60;5.10;;;;;;;;;;4734767;30;20076;-59
2022/07/15 00:43:11;;;;;;;3.42;2.53;;;;;;;;;;4719175;30;20152;-60
2022/07/15 00:45:39;;;;;;;4.45;2.95;;;;;;;;;;4734639;30;20087;-60
2022/07/15 00:48:06;;;;;;;5.05;3.35;;;;;;;;;;4734425;30;20410;-60
2022/07/15 00:50:36;;;;;;;4.68;3.70;;;;;;;;;;4718871;30;20057;-60
2022/07/15 00:53:12;;;;;;;5.63;2.88;;;;;;;;;;4719032;30;20045;-60
2022/07/15 00:55:42;;;;;;;6.30;4.25;;;;;;;;;;4718621;30;20087;-59
2022/07/15 00:58:18;;;;;;;5.53;3.50;;;;;;;;;;4704353;30;20091;-60
2022/07/15 01:00:47;;;;;;;4.20;3.40;;;;;;;;;;4734600;30;20049;-60
2022/07/15 01:03:17;;;;;;;4.85;3.33;;;;;;;;;;4734850;30;20144;-58
2022/07/15 01:05:46;;;;;;;6.70;4.35;;;;;;;;;;4734459;30;20063;-59
2022/07/15 01:08:20;;;;;;;5.45;3.35;;;;;;;;;;4734378;30;20057;-59
2022/07/15 01:10:49;;;;;;;7.15;3.53;;;;;;;;;;4718486;30;20140;-59
2022/07/15 01:13:20;;;;;;;6.80;3.85;;;;;;;;;;4718502;30;20058;-59
2022/07/15 01:15:49;;;;;;;7.93;3.53;;;;;;;;;;4718307;30;20052;-59
2022/07/15 01:18:18;;;;;;;4.25;3.13;;;;;;;;;;4734181;30;20413;-57
2022/07/15 01:20:46;;;;;;;21.08;12.57;;;;;;;;;;4733396;30;20658;-58
2022/07/15 01:23:13;;;;;;;6.60;4.45;;;;;;;;;;4733894;30;20053;-59
2022/07/15 01:26:04;;;;;;;6.57;3.95;;;;;;;;;;4724582;30;20076;-58
2022/07/15 01:28:33;;;;;;;5.63;3.42;;;;;;;;;;4718565;30;20052;-58
2022/07/15 01:31:02;;;;;;;7.75;3.30;;;;;;;;;;4718462;30;20061;-59
2022/07/15 01:33:32;;;;;;;8.90;3.40;;;;;;;;;;4718373;30;20498;-58
2022/07/15 01:36:00;;;;;;;5.40;3.20;;;;;;;;;;4718071;30;20140;-57
2022/07/15 01:38:29;;;;;;;4.28;2.50;;;;;;;;;;4718084;30;20059;-58
2022/07/15 01:41:00;;;;;;;4.72;3.83;;;;;;;;;;4717940;30;20065;-58
2022/07/15 01:43:28;;;;;;;4.28;3.15;;;;;;;;;;4733805;30;20086;-58
2022/07/15 01:45:56;;;;;;;5.32;4.50;;;;;;;;;;4717840;30;20094;-58
2022/07/15 01:51:54;;;;;;;7.20;5.35;;;;;;;;;;4679416;30;20062;-58
2022/07/15 01:54:23;;;;;;;9.43;6.50;;;;;;;;;;4723223;30;20053;-58
2022/07/15 01:56:52;;;;;;;5.20;3.38;;;;;;;;;;4717772;30;20099;-58
2022/07/15 01:59:24;;;;;;;7.13;4.10;;;;;;;;;;4733353;30;20091;-57
2022/07/15 02:01:54;;;;;;;9.75;4.88;;;;;;;;;;4717715;30;20425;-57
2022/07/15 02:04:22;;;;;;;12.90;8.07;;;;;;;;;;4717548;30;20062;-58
2022/07/15 02:06:50;;;;;;;8.05;4.75;;;;;;;;;;4717730;30;20052;-58
2022/07/15 02:09:19;;;;;;;6.55;4.45;;;;;;;;;;4717492;30;20159;-58
2022/07/15 02:11:50;;;;;;;5.57;4.47;;;;;;;;;;4717618;30;20080;-53
2022/07/15 02:14:20;;;;;;;5.78;4.07;;;;;;;;;;4717337;30;20057;-57
2022/07/15 02:16:48;;;;;;;3.95;3.28;;;;;;;;;;4717591;30;20095;-57
2022/07/15 02:19:22;;;;;;;6.00;3.72;;;;;;;;;;4717210;30;20430;-58
2022/07/15 02:21:49;;;;;;;8.45;6.22;;;;;;;;;;4717675;30;20552;-58
2022/07/15 02:24:19;;;;;;;11.18;7.35;;;;;;;;;;4733083;30;20059;-57
2022/07/15 02:26:48;;;;;;;4.75;3.63;;;;;;;;;;4733239;30;20063;-58
2022/07/15 02:29:16;;;;;;;8.18;5.85;;;;;;;;;;4732918;30;20064;-60
2022/07/15 02:31:44;;;;;;;6.55;3.55;;;;;;;;;;4700017;30;20056;-58
2022/07/15 02:34:11;;;;;;;5.18;4.07;;;;;;;;;;4699604;30;20057;-57
2022/07/15 02:36:40;;;;;;;6.55;5.10;;;;;;;;;;4699938;30;20045;-57
2022/07/15 02:39:07;;;;;;;5.68;3.80;;;;;;;;;;4715451;30;20123;-53
2022/07/15 02:41:34;;;;;;;25.95;12.30;;;;;;;;;;4715677;30;20060;-56
2022/07/15 02:44:07;;;;;;;11.25;7.05;;;;;;;;;;4699327;30;20049;-57
2022/07/15 02:46:36;;;;;;;6.13;4.65;;;;;;;;;;4699615;30;20052;-58
2022/07/15 02:49:04;;;;;;;7.40;6.03;;;;;;;;;;4699752;30;20056;-58
2022/07/15 02:51:33;;;;;;;8.10;5.55;;;;;;;;;;4699626;30;20136;-58
2022/07/15 02:54:00;;;;;;;5.70;4.72;;;;;;;;;;4699303;30;20053;-58
2022/07/15 02:56:30;;;;;;;6.80;5.30;;;;;;;;;;4699395;30;20049;-58
2022/07/15 02:58:59;;;;;;;4.15;3.40;;;;;;;;;;4715100;30;20103;-56
2022/07/15 03:01:26;;;;;;;7.47;3.97;;;;;;;;;;4713851;30;20490;-58
2022/07/15 03:03:55;;;;;;;4.65;2.90;;;;;;;;;;4716508;30;20395;-57
2022/07/15 03:06:24;;;;;;;4.78;4.28;;;;;;;;;;4716459;30;20588;-58
2022/07/15 03:08:51;;;;;;;5.82;5.22;;;;;;;;;;4716788;30;20080;-58
2022/07/15 03:11:19;;;;;;;5.93;4.45;;;;;;;;;;4716717;30;20064;-58
2022/07/15 03:13:48;;;;;;;3.35;2.75;;;;;;;;;;4716488;30;20423;-58
2022/07/15 03:16:16;;;;;;;3.60;3.10;;;;;;;;;;4716578;30;20045;-57
2022/07/15 03:18:46;;;;;;;4.35;3.95;;;;;;;;;;4716444;30;20084;-58
2022/07/15 03:21:15;;;;;;;6.53;4.28;;;;;;;;;;4716592;30;20053;-56
2022/07/15 03:23:47;;;;;;;5.07;4.18;;;;;;;;;;4716518;30;20061;-57
2022/07/15 03:26:15;;;;;;;6.05;4.60;;;;;;;;;;4723081;30;20111;-57
2022/07/15 03:28:44;;;;;;;14.57;8.32;;;;;;;;;;4699065;30;20147;-55
2022/07/15 03:31:11;;;;;;;7.97;3.53;;;;;;;;;;4726628;30;20057;-58
2022/07/15 03:33:39;;;;;;;5.60;4.35;;;;;;;;;;4716376;30;20059;-58
2022/07/15 03:36:08;;;;;;;7.45;4.90;;;;;;;;;;4716384;30;20405;-58
2022/07/15 03:38:36;;;;;;;4.43;3.70;;;;;;;;;;4716482;30;20567;-57
2022/07/15 03:41:04;;;;;;;3.92;2.97;;;;;;;;;;4716542;30;20436;-58
2022/07/15 03:43:31;;;;;;;4.03;3.50;;;;;;;;;;4732047;30;20055;-58
2022/07/15 03:45:59;;;;;;;4.18;3.50;;;;;;;;;;4734983;30;20055;-58
2022/07/15 03:48:29;;;;;;;8.90;4.40;;;;;;;;;;4719959;30;20053;-58
2022/07/15 03:50:57;;;;;;;4.40;3.47;;;;;;;;;;4735764;30;20063;-57
2022/07/15 03:53:24;;;;;;;4.05;3.58;;;;;;;;;;4735440;30;20092;-57
2022/07/15 03:55:52;;;;;;;4.75;3.33;;;;;;;;;;4719653;30;20055;-57
2022/07/15 03:58:19;;;;;;;4.85;3.67;;;;;;;;;;4735431;30;20142;-57
2022/07/15 04:00:47;;;;;;;4.18;3.15;;;;;;;;;;4735587;30;20049;-57
2022/07/15 04:03:14;;;;;;;8.50;6.18;;;;;;;;;;4719619;30;20448;-57
2022/07/15 04:05:42;;;;;;;6.15;4.45;;;;;;;;;;4735444;30;20469;-56
2022/07/15 04:08:10;;;;;;;7.63;5.53;;;;;;;;;;4735419;30;20048;-56
2022/07/15 04:10:38;;;;;;;11.15;6.53;;;;;;;;;;4735476;30;20052;-55
2022/07/15 04:13:05;;;;;;;8.70;6.32;;;;;;;;;;4735620;30;20044;-56
2022/07/15 04:15:32;;;;;;;8.07;7.25;;;;;;;;;;4735270;30;20052;-55
2022/07/15 04:17:59;;;;;;;9.00;7.80;;;;;;;;;;4735308;30;20055;-55
2022/07/15 04:20:27;;;;;;;7.05;5.97;;;;;;;;;;4719334;30;20056;-57
2022/07/15 04:22:58;;;;;;;8.18;6.15;;;;;;;;;;4719198;30;20143;-58
2022/07/15 04:25:26;;;;;;;7.78;5.70;;;;;;;;;;4717001;30;20080;-56
2022/07/15 04:27:53;;;;;;;7.30;5.45;;;;;;;;;;4734634;30;20079;-52
2022/07/15 04:30:29;;;;;;;9.57;4.10;;;;;;;;;;4720381;30;20141;-58
2022/07/15 04:32:57;;;;;;;12.88;3.85;;;;;;;;;;4716454;30;20056;-57
2022/07/15 04:35:28;;;;;;;3.35;2.20;;;;;;;;;;4729032;30;20383;-57
2022/07/15 04:38:01;;;;;;;4.47;2.60;;;;;;;;;;4720499;30;20052;-57
2022/07/15 04:40:28;;;;;;;4.40;2.13;;;;;;;;;;4736402;30;20437;-55
2022/07/15 04:42:57;;;;;;;3.63;2.22;;;;;;;;;;4736119;30;20518;-58
2022/07/15 04:45:27;;;;;;;5.35;2.25;;;;;;;;;;4719734;30;20048;-55
2022/07/15 04:47:57;;;;;;;5.70;2.67;;;;;;;;;;4722575;30;20056;-56
2022/07/15 04:50:46;;;;;;;4.25;2.53;;;;;;;;;;4753869;30;20449;-55
2022/07/15 04:53:13;;;;;;;7.07;3.20;;;;;;;;;;4737731;30;20054;-56
2022/07/15 04:55:43;;;;;;;7.95;3.33;;;;;;;;;;4736826;30;20094;-58
2022/07/15 04:58:13;;;;;;;4.63;3.00;;;;;;;;;;4737566;30;20125;-57
2022/07/15 05:00:45;;;;;;;4.47;3.10;;;;;;;;;;4737783;30;20051;-55
2022/07/15 05:03:14;;;;;;;5.07;2.92;;;;;;;;;;4737478;30;20544;-52
2022/07/15 05:05:43;;;;;;;4.18;2.35;;;;;;;;;;4737289;30;20044;-58
2022/07/15 05:08:14;;;;;;;5.30;3.47;;;;;;;;;;4737440;30;20086;-55
2022/07/15 05:10:46;;;;;;;5.25;3.15;;;;;;;;;;4737695;30;20044;-56
2022/07/15 05:13:14;;;;;;;3.30;2.45;;;;;;;;;;4753108;30;20044;-55
2022/07/15 05:15:41;;;;;;;3.70;2.75;;;;;;;;;;4737013;30;20549;-55
2022/07/15 05:18:19;;;;;;;6.97;3.30;;;;;;;;;;4737324;30;20052;-56
2022/07/15 05:20:50;;;;;;;4.82;3.30;;;;;;;;;;4737241;30;20450;-54
2022/07/15 05:23:18;;;;;;;3.25;2.63;;;;;;;;;;4753086;30;20063;-55
2022/07/15 05:25:51;;;;;;;5.25;3.47;;;;;;;;;;4737183;30;20138;-55
2022/07/15 05:28:18;;;;;;;3.65;2.67;;;;;;;;;;4752651;30;20048;-56
2022/07/15 05:30:48;;;;;;;4.05;2.97;;;;;;;;;;4726561;30;20391;-56
2022/07/15 05:33:16;;;;;;;3.33;2.40;;;;;;;;;;4719061;30;20055;-56
2022/07/15 05:35:44;;;;;;;3.90;2.28;;;;;;;;;;4719869;30;20110;-55
2022/07/15 05:38:20;;;;;;;3.90;2.60;;;;;;;;;;4719094;30;20052;-54
2022/07/15 05:40:53;;;;;;;3.72;2.90;;;;;;;;;;4719257;30;20445;-54
2022/07/15 05:43:23;;;;;;;3.30;1.98;;;;;;;;;;4719374;30;20514;-55
2022/07/15 05:45:51;;;;;;;3.42;2.05;;;;;;;;;;4719288;30;20048;-55
2022/07/15 05:48:20;;;;;;;3.33;1.88;;;;;;;;;;4718952;30;20056;-56
2022/07/15 05:50:52;;;;;;;4.20;2.10;;;;;;;;;;4719454;30;20072;-55
2022/07/15 05:53:20;;;;;;;3.53;1.77;;;;;;;;;;4719296;30;20415;-56
2022/07/15 05:55:47;;;;;;;4.25;1.92;;;;;;;;;;4719503;30;20065;-54
2022/07/15 05:58:18;;;;;;;3.05;1.70;;;;;;;;;;4718305;30;20048;-56
2022/07/15 06:00:47;;;;;;;4.93;1.60;;;;;;;;;;4719475;30;20524;-54
2022/07/15 06:03:14;;;;;;;2.47;1.33;;;;;;;;;;4704656;30;20172;-55
2022/07/15 06:05:44;;;;;;;3.00;1.40;;;;;;;;;;4719300;30;20074;-56
2022/07/15 06:08:12;;;;;;;1.80;1.40;;;;;;;;;;4733349;30;20079;-55
2022/07/15 06:10:44;;;;;;;3.40;1.27;;;;;;;;;;4734899;30;20502;-51
2022/07/15 06:13:12;;;;;;;2.22;1.10;;;;;;;;;;4719007;30;20080;-55
2022/07/15 06:15:41;;;;;;;3.95;1.38;;;;;;;;;;4719079;30;20513;-56
2022/07/15 06:18:13;;;;;;;1.53;0.80;;;;;;;;;;4718424;30;20518;-55
2022/07/15 06:20:42;;;;;;;1.55;0.90;;;;;;;;;;4718962;30;20285;-56
2022/07/15 06:23:10;;;;;;;2.25;0.93;;;;;;;;;;4718616;30;20056;-56
2022/07/15 06:25:38;;;;;;;2.25;0.80;;;;;;;;;;4734421;30;20059;-54
2022/07/15 06:28:07;;;;;;;1.77;0.90;;;;;;;;;;4734333;30;20048;-56
2022/07/15 06:30:34;;;;;;;2.65;0.82;;;;;;;;;;4718340;30;20510;-55
2022/07/15 06:33:02;;;;;;;1.90;0.80;;;;;;;;;;4734417;30;20049;-56
2022/07/15 06:35:30;;;;;;;2.40;0.80;;;;;;;;;;4734332;30;20132;-55
2022/07/15 06:37:57;;;;;;;2.90;0.70;;;;;;;;;;4734352;30;20095;-55
2022/07/15 06:40:24;;;;;;;1.13;0.65;;;;;;;;;;4718134;30;20064;-56
2022/07/15 06:42:52;;;;;;;1.30;0.60;;;;;;;;;;4734328;30;20098;-55
2022/07/15 06:45:25;;;;;;;0.90;0.68;;;;;;;;;;4718755;30;20077;-54
2022/07/15 06:47:54;;;;;;;1.88;0.80;;;;;;;;;;4718414;30;20481;-57
2022/07/15 06:50:25;;;;;;;5.75;0.80;;;;;;;;;;4714769;30;20056;-56
2022/07/15 06:52:54;;;;;;;2.15;0.70;;;;;;;;;;4730196;30;20053;-55
2022/07/15 06:55:21;;;;;;;1.88;0.60;;;;;;;;;;4718336;30;20441;-56
2022/07/15 06:57:48;;;;;;;12.10;6.38;;;;;;;;;;4717158;30;20114;-56
2022/07/15 07:00:16;;;;;;;2.55;0.82;;;;;;;;;;4715634;30;20324;-56
2022/07/15 07:02:44;;;;;;;1.05;0.80;;;;;;;;;;4716030;30;20060;-58
2022/07/15 07:05:15;;;;;;;3.03;0.70;;;;;;;;;;4716433;30;20112;-56
2022/07/15 07:07:43;;;;;;;39.95;22.25;;;;;;;;;;4716140;30;20048;-54
2022/07/15 07:10:10;;;;;;;10.70;3.05;;;;;;;;;;4731690;30;20482;-58
2022/07/15 07:12:38;;;;;;;4.32;0.55;;;;;;;;;;4716573;30;20136;-58
2022/07/15 07:15:07;;;;;;;2.67;0.50;;;;;;;;;;4734181;30;20044;-58
2022/07/15 07:17:34;;;;;;;1.20;0.45;;;;;;;;;;4733869;30;20522;-56
2022/07/15 07:20:01;;;;;;;1.35;0.60;;;;;;;;;;4733574;30;20099;-57
2022/07/15 07:22:29;;;;;;;1.08;0.63;;;;;;;;;;4732827;30;20060;-56
2022/07/15 07:24:59;;;;;;;2.90;0.68;;;;;;;;;;4733865;30;20453;-58
2022/07/15 07:27:26;;;;;;;0.70;0.45;;;;;;;;;;4733605;30;20514;-56
2022/07/15 07:29:54;;;;;;;1.48;0.45;;;;;;;;;;4733433;30;20040;-57
2022/07/15 07:32:21;;;;;;;0.68;0.40;;;;;;;;;;4732753;30;20224;-57
2022/07/15 07:34:48;;;;;;;1.23;0.57;;;;;;;;;;4733787;30;20045;-56
2022/07/15 07:37:16;;;;;;;2.38;0.55;;;;;;;;;;4733850;30;20123;-58
2022/07/15 07:39:43;;;;;;;1.75;0.40;;;;;;;;;;4718030;30;20050;-55
2022/07/15 07:42:11;;;;;;;1.52;0.50;;;;;;;;;;4732823;30;20056;-58
2022/07/15 07:44:39;;;;;;;1.42;0.50;;;;;;;;;;4733438;30;20449;-58
2022/07/15 07:47:06;;;;;;;0.88;0.50;;;;;;;;;;4733666;30;20068;-56
2022/07/15 07:49:40;;;;;;;0.95;0.57;;;;;;;;;;4733601;30;20060;-58
2022/07/15 07:52:08;;;;;;;3.67;0.65;;;;;;;;;;4733116;30;20048;-58
2022/07/15 07:54:35;;;;;;;2.35;0.65;;;;;;;;;;4733367;30;20040;-57
2022/07/15 07:57:03;;;;;;;5.75;0.85;;;;;;;;;;4733554;30;20044;-58
2022/07/15 07:59:30;;;;;;;2.67;0.50;;;;;;;;;;4733311;30;20525;-58
2022/07/15 08:01:58;;;;;;;1.13;0.40;;;;;;;;;;4732822;30;20052;-58
2022/07/15 08:04:26;;;;;;;1.65;1.00;;;;;;;;;;4733209;30;20139;-62
2022/07/15 08:06:53;;;;;;;3.17;0.60;;;;;;;;;;4717566;30;20591;-57
2022/07/15 08:09:20;;;;;;;2.17;0.47;;;;;;;;;;4733543;30;20055;-58
2022/07/15 08:11:47;;;;;;;2.85;0.50;;;;;;;;;;4733386;30;20057;-58
2022/07/15 08:14:15;;;;;;;1.42;0.60;;;;;;;;;;4717088;30;20124;-58
2022/07/15 08:16:43;;;;;;;0.70;0.35;;;;;;;;;;4733125;30;20530;-57
2022/07/15 08:19:15;;;;;;;6.07;0.63;;;;;;;;;;4733400;30;20052;-58
2022/07/15 08:21:43;;;;;;;0.95;0.38;;;;;;;;;;4733576;30;20053;-58
2022/07/15 08:24:12;;;;;;;1.05;0.52;;;;;;;;;;4732415;30;20053;-58
2022/07/15 08:26:39;;;;;;;1.27;0.57;;;;;;;;;;4733528;30;20051;-55
2022/07/15 08:29:07;;;;;;;1.00;0.40;;;;;;;;;;4733266;30;20049;-57
2022/07/15 08:31:36;;;;;;;1.48;0.50;;;;;;;;;;4735230;30;20409;-58
2022/07/15 08:34:07;;;;;;;18.98;14.00;;;;;;;;;;4719773;30;20068;-56
2022/07/15 08:36:35;;;;;;;3.45;2.05;;;;;;;;;;4736449;30;20057;-56
2022/07/15 08:39:02;;;;;;;4.47;2.03;;;;;;;;;;4736193;30;20084;-58
2022/07/15 08:41:35;;;;;;;1.00;0.40;;;;;;;;;;4736669;30;20451;-58
2022/07/15 08:44:03;;;;;;;;;;;;;;;;;;4719949;30;20061;-58
2022/07/15 08:46:33;;;;;;;1.55;0.60;;;;;;;;;;4736210;30;19931;-57
2022/07/15 08:49:13;;;;;;;2.35;0.75;;;;;;;;;;4735954;30;20067;-59
2022/07/15 08:51:46;;;;;;;0.80;0.30;;;;;;;;;;4736564;30;20474;-58
2022/07/15 08:54:14;;;;;;;1.25;0.40;;;;;;;;;;4735502;30;20067;-56
2022/07/15 08:56:45;;;;;;;0.65;0.30;;;;;;;;;;4736468;30;20053;-59
2022/07/15 08:59:14;;;;;;;;;;;;;;;;;;4736267;30;20053;-58
2022/07/15 09:01:44;;;;;;;3.13;0.30;;;;;;;;;;4735960;30;19958;-57
2022/07/15 09:04:13;;;;;;;0.73;0.30;;;;;;;;;;4735165;30;20107;-57
2022/07/15 09:06:46;;;;;;;1.17;0.30;;;;;;;;;;4736055;30;20044;-58
2022/07/15 09:09:34;;;;;;;5.88;0.75;;;;;;;;;;4735768;30;20080;-58
2022/07/15 09:12:04;;;;;;;0.50;0.30;;;;;;;;;;4735775;30;20098;-58
2022/07/15 09:14:44;;;;;;;0.95;0.22;;;;;;;;;;4735179;30;20201;-58
2022/07/15 09:17:13;;;;;;;80.95;51.47;;;;;;;;;;4720249;30;20044;-55
2022/07/15 09:20:09;;;;;;;6.22;1.45;;;;;;;;;;4735755;30;20532;-59
2022/07/15 09:22:55;;;;;;;0.57;0.20;;;;;;;;;;4719462;30;20748;-59
2022/07/15 09:25:24;;;;;;;2.17;0.35;;;;;;;;;;4735249;30;20131;-59
2022/07/15 09:27:54;;;;;;;3.30;0.60;;;;;;;;;;4735438;30;20049;-59
2022/07/15 09:36:22;;;;;;;0.15;0.15;;;;;;;;;;4734802;30;20048;-60
2022/07/15 09:38:51;;;;;;;1.42;0.47;;;;;;;;;;4735541;30;20044;-59
2022/07/15 09:41:28;;;;;;;1.40;0.85;;;;;;;;;;4734705;30;20087;-59
2022/07/15 09:44:02;;;;;;;1.33;0.50;;;;;;;;;;4734581;30;20110;-60
2022/07/15 09:46:43;;;;;;;0.85;0.30;;;;;;;;;;4728138;30;20395;-59
2022/07/15 09:49:13;;;;;;;0.73;0.20;;;;;;;;;;4735337;30;20063;-59
2022/07/15 09:51:50;;;;;;;4.68;0.40;;;;;;;;;;4735304;30;20048;-60
2022/07/15 09:54:20;;;;;;;3.38;0.40;;;;;;;;;;4734787;30;20522;-59
2022/07/15 09:56:50;;;;;;;0.65;0.28;;;;;;;;;;4740304;30;20052;-59
2022/07/15 09:59:19;;;;;;;1.85;0.32;;;;;;;;;;4752761;30;20056;-59
2022/07/15 10:01:47;;;;;;;0.20;0.20;;;;;;;;;;4752742;30;20068;-58
2022/07/15 10:04:17;;;;;;;0.17;0.15;;;;;;;;;;4742015;30;20147;-59
2022/07/15 10:06:48;;;;;;;5.55;4.35;;;;;;;;;;4734448;30;20472;-58
2022/07/15 10:09:36;;;;;;;11.68;6.90;;;;;;;;;;4729019;30;20059;-59
2022/07/15 10:12:09;;;;;;;0.47;0.30;;;;;;;;;;4734952;30;20067;-59
2022/07/15 10:14:59;;;;;;;1.85;0.30;;;;;;;;;;4734407;30;20181;-59
2022/07/15 10:17:45;;;;;;;0.60;0.40;;;;;;;;;;4734175;30;20063;-59
2022/07/15 10:20:31;;;;;;;0.68;0.30;;;;;;;;;;4734850;30;20075;-59
2022/07/15 10:23:27;;;;;;;1.75;0.40;;;;;;;;;;4734321;30;20056;-59
2022/07/15 10:26:25;;;;;;;3.55;0.20;;;;;;;;;;4734551;30;20123;-59
2022/07/15 10:29:01;;;;;;;0.45;0.20;;;;;;;;;;4734140;30;20047;-59
2022/07/15 10:31:32;;;;;;;65.30;51.42;;;;;;;;;;4734310;30;20055;-58
2022/07/15 10:34:02;;;;;;;3.80;1.85;;;;;;;;;;4719155;30;20127;-58
2022/07/15 10:36:49;;;;;;;2.00;0.32;;;;;;;;;;4734294;30;20056;-59
2022/07/15 10:39:19;;;;;;;0.70;0.30;;;;;;;;;;4734249;30;20064;-59
2022/07/15 10:41:51;;;;;;;1.42;0.40;;;;;;;;;;4734484;30;20045;-60
2022/07/15 10:44:20;;;;;;;0.55;0.30;;;;;;;;;;4734099;30;20053;-59
2022/07/15 10:46:48;;;;;;;0.20;0.20;;;;;;;;;;4718564;30;20406;-60
2022/07/15 10:49:16;;;;;;;0.50;0.20;;;;;;;;;;4733928;30;20052;-60
2022/07/15 10:51:46;;;;;;;0.50;0.20;;;;;;;;;;4734214;30;20068;-59
2022/07/15 10:54:16;;;;;;;1.88;0.30;;;;;;;;;;4733396;30;20533;-59
2022/07/15 10:56:51;;;;;;;0.30;0.20;;;;;;;;;;4718726;30;20561;-59
2022/07/15 10:59:24;;;;;;;2.80;0.20;;;;;;;;;;4733403;30;20052;-59
2022/07/15 11:02:00;;;;;;;0.10;0.10;;;;;;;;;;4733972;30;20041;-60
2022/07/15 11:04:30;;;;;;;0.60;0.20;;;;;;;;;;4733692;30;20064;-59
2022/07/15 11:07:10;;;;;;;0.70;0.30;;;;;;;;;;4733996;30;20074;-59
2022/07/15 11:09:47;;;;;;;0.25;0.20;;;;;;;;;;4733531;30;20412;-59
2022/07/15 11:12:36;;;;;;;0.20;0.20;;;;;;;;;;4733792;30;20052;-60
2022/07/15 11:15:16;;;;;;;1.00;0.30;;;;;;;;;;4733032;30;20056;-59
2022/07/15 11:17:51;;;;;;;0.95;0.20;;;;;;;;;;4733939;30;20509;-58
2022/07/15 11:20:31;;;;;;;0.20;0.20;;;;;;;;;;4733333;30;20051;-58
2022/07/15 11:22:59;;;;;;;27.50;14.45;;;;;;;;;;4733474;30;20145;-57
2022/07/15 11:25:33;;;;;;;5.43;1.42;;;;;;;;;;4733449;30;20387;-59
2022/07/15 11:28:11;;;;;;;1.00;0.20;;;;;;;;;;4733738;30;20467;-59
2022/07/15 11:30:43;;;;;;;2.08;0.38;;;;;;;;;;4733025;30;20075;-60
2022/07/15 11:33:14;;;;;;;0.35;0.20;;;;;;;;;;4733509;30;20106;-60
2022/07/15 11:35:55;;;;;;;1.65;0.20;;;;;;;;;;4733697;30;20311;-59
2022/07/15 11:38:27;;;;;;;0.40;0.20;;;;;;;;;;4733529;30;20116;-58
2022/07/15 11:46:49;;;;;;;0.13;0.13;;;;;;;;;;4733848;30;20048;-60
2022/07/15 11:49:40;;;;;;;0.35;0.20;;;;;;;;;;4733908;30;20049;-60
2022/07/15 11:52:09;;;;;;;0.73;0.20;;;;;;;;;;4732848;30;20044;-59
2022/07/15 11:54:38;;;;;;;7.00;3.60;;;;;;;;;;4732769;30;20044;-59
2022/07/15 11:57:08;;;;;;;1.25;0.60;;;;;;;;;;4733359;30;20052;-60
2022/07/15 11:59:37;;;;;;;0.73;0.20;;;;;;;;;;4733365;30;20060;-60
2022/07/15 12:02:07;;;;;;;1.65;0.17;;;;;;;;;;4732882;30;20119;-59
2022/07/15 12:04:35;;;;;;;0.40;0.10;;;;;;;;;;4733234;30;20468;-59
2022/07/15 12:07:03;;;;;;;0.60;0.10;;;;;;;;;;4736237;30;20136;-61
2022/07/15 12:09:41;;;;;;;0.57;0.20;;;;;;;;;;4736717;30;20061;-59
2022/07/15 12:12:09;;;;;;;0.40;0.20;;;;;;;;;;4735946;30;20057;-60
2022/07/15 12:14:37;;;;;;;0.43;0.20;;;;;;;;;;4736966;30;20044;-59
2022/07/15 12:17:04;;;;;;;0.38;0.20;;;;;;;;;;4736442;30;20520;-58
2022/07/15 12:19:33;;;;;;;0.63;0.20;;;;;;;;;;4736709;30;20052;-59
2022/07/15 12:22:06;;;;;;;1.48;0.22;;;;;;;;;;4736626;30;20048;-59
2022/07/15 12:24:42;;;;;;;1.55;0.65;;;;;;;;;;4736737;30;20475;-59
2022/07/15 12:27:11;;;;;;;2.25;0.43;;;;;;;;;;4736613;30;20139;-59
2022/07/15 12:29:40;;;;;;;0.20;0.10;;;;;;;;;;4736639;30;20472;-60
2022/07/15 12:32:27;;;;;;;0.20;0.20;;;;;;;;;;4736309;30;20096;-59
2022/07/15 12:34:57;;;;;;;1.02;0.20;;;;;;;;;;4736697;30;20056;-58
2022/07/15 12:37:48;;;;;;;0.20;0.20;;;;;;;;;;4736504;30;20052;-59
2022/07/15 12:40:23;;;;;;;0.55;0.20;;;;;;;;;;4729618;30;20056;-57
2022/07/15 12:42:52;;;;;;;0.28;0.10;;;;;;;;;;4720726;30;20139;-59
2022/07/15 12:45:24;;;;;;;0.10;0.10;;;;;;;;;;4736382;30;20587;-59
2022/07/15 12:48:07;;;;;;;0.10;0.10;;;;;;;;;;4736618;30;20045;-60
2022/07/15 12:50:51;;;;;;;0.20;0.10;;;;;;;;;;4736416;30;20124;-59
2022/07/15 12:53:26;;;;;;;0.95;0.20;;;;;;;;;;4736157;30;20055;-58
2022/07/15 12:56:00;;;;;;;0.57;0.20;;;;;;;;;;4736311;30;20391;-59
2022/07/15 12:58:29;;;;;;;1.05;0.52;;;;;;;;;;4735895;30;20529;-59
2022/07/15 13:01:05;;;;;;;1.70;0.38;;;;;;;;;;4736144;30;20053;-59
2022/07/15 13:03:34;;;;;;;0.85;0.20;;;;;;;;;;4734968;30;20052;-59
2022/07/15 13:06:02;;;;;;;0.30;0.10;;;;;;;;;;4735926;30;20048;-60
2022/07/15 13:08:34;;;;;;;0.10;0.10;;;;;;;;;;4735789;30;20052;-59
2022/07/15 13:11:05;;;;;;;0.30;0.20;;;;;;;;;;4736083;30;20056;-59
2022/07/15 13:13:34;;;;;;;0.85;0.20;;;;;;;;;;4735883;30;20071;-60
2022/07/15 13:16:03;;;;;;;0.65;0.30;;;;;;;;;;4735650;30;20045;-59
2022/07/15 13:18:32;;;;;;;0.35;0.13;;;;;;;;;;4735816;30;20048;-59
2022/07/15 13:20:59;;;;;;;0.65;0.20;;;;;;;;;;4735645;30;20052;-59
2022/07/15 13:23:27;;;;;;;0.40;0.20;;;;;;;;;;4735877;30;20049;-59
2022/07/15 13:25:55;;;;;;;1.95;0.10;;;;;;;;;;4719942;30;20052;-59
2022/07/15 13:28:24;;;;;;;1.15;0.20;;;;;;;;;;4735306;30;20418;-59
2022/07/15 13:30:52;;;;;;;0.20;0.20;;;;;;;;;;4735878;30;20135;-60
2022/07/15 13:33:20;;;;;;;0.10;0.10;;;;;;;;;;4735712;30;20052;-60
2022/07/15 13:35:48;;;;;;;0.13;0.10;;;;;;;;;;4735355;30;20114;-60
2022/07/15 13:38:15;;;;;;;0.35;0.20;;;;;;;;;;4735171;30;20082;-59
2022/07/15 13:40:42;;;;;;;0.70;0.20;;;;;;;;;;4735400;30;20144;-59
2022/07/15 13:43:10;;;;;;;1.20;0.20;;;;;;;;;;4735289;30;20140;-60
2022/07/15 13:45:37;;;;;;;1.70;0.20;;;;;;;;;;4734442;30;20502;-60
2022/07/15 13:48:12;;;;;;;1.65;0.20;;;;;;;;;;4735027;30;20135;-60
2022/07/15 13:53:26;;;;;;;4.50;2.65;;;;;;;;;;4734982;30;20049;-61
2022/07/15 13:55:53;;;;;;;0.47;0.38;;;;;;;;;;4735270;30;20048;-61
2022/07/15 13:58:20;;;;;;;1.55;0.40;;;;;;;;;;4734498;30;20429;-59
2022/07/15 14:00:48;;;;;;;2.72;0.35;;;;;;;;;;4733750;30;20462;-60
2022/07/15 14:03:15;;;;;;;1.23;0.40;;;;;;;;;;4734091;30;20410;-61
2022/07/15 14:05:45;;;;;;;0.98;0.60;;;;;;;;;;4733696;30;20049;-61
2022/07/15 14:08:13;;;;;;;0.60;0.30;;;;;;;;;;4733750;30;20505;-60
2022/07/15 14:10:40;;;;;;;1.83;0.40;;;;;;;;;;4733717;30;20513;-61
2022/07/15 14:13:07;;;;;;;0.60;0.30;;;;;;;;;;4733854;30;20048;-59
2022/07/15 14:15:35;;;;;;;0.90;0.40;;;;;;;;;;4733833;30;20040;-61
2022/07/15 14:18:05;;;;;;;1.73;0.30;;;;;;;;;;4733747;30;20107;-60
2022/07/15 14:20:33;;;;;;;1.10;0.20;;;;;;;;;;4733410;30;20048;-60
2022/07/15 14:23:01;;;;;;;0.50;0.20;;;;;;;;;;4733346;30;20051;-59
2022/07/15 14:25:28;;;;;;;0.95;0.20;;;;;;;;;;4733561;30;20091;-59
2022/07/15 14:27:56;;;;;;;1.55;0.40;;;;;;;;;;4733268;30;20454;-59
2022/07/15 14:30:23;;;;;;;1.05;0.20;;;;;;;;;;4733276;30;20044;-60
2022/07/15 14:32:53;;;;;;;0.20;0.20;;;;;;;;;;4733746;30;20514;-59
2022/07/15 14:35:22;;;;;;;0.40;0.20;;;;;;;;;;4733766;30;20501;-59
2022/07/15 14:37:49;;;;;;;1.80;0.30;;;;;;;;;;4733152;30;20044;-59
2022/07/15 14:40:18;;;;;;;0.38;0.38;;;;;;;;;;4733753;30;20053;-60
2022/07/15 14:42:45;;;;;;;1.92;0.98;;;;;;;;;;4733699;30;20080;-61
2022/07/15 14:45:13;;;;;;;0.75;0.50;;;;;;;;;;4733572;30;20123;-61
2022/07/15 14:47:40;;;;;;;0.85;0.30;;;;;;;;;;4733299;30;20136;-61
2022/07/15 14:50:08;;;;;;;3.10;0.30;;;;;;;;;;4733351;30;20118;-60
2022/07/15 14:52:36;;;;;;;1.17;0.20;;;;;;;;;;4733462;30;20040;-59
2022/07/15 14:55:04;;;;;;;41.60;2.15;;;;;;;;;;4733417;30;20055;-59
2022/07/15 14:57:31;;;;;;;106.03;62.58;;;;;;;;;;4733464;30;20120;-62
2022/07/15 14:59:59;;;;;;;9.73;5.47;;;;;;;;;;4733867;30;20127;-59
2022/07/15 15:02:26;;;;;;;1.02;0.40;;;;;;;;;;4734096;30;20155;-60
2022/07/15 15:04:53;;;;;;;1.02;0.40;;;;;;;;;;4734171;30;20048;-59
2022/07/15 15:07:21;;;;;;;0.98;0.35;;;;;;;;;;4734233;30;20763;-60
2022/07/15 15:09:48;;;;;;;0.40;0.17;;;;;;;;;;4733905;30;20067;-60
2022/07/15 15:12:16;;;;;;;1.25;0.30;;;;;;;;;;4733702;30;20048;-62
2022/07/15 15:14:43;;;;;;;2.17;0.20;;;;;;;;;;4733782;30;20048;-62
2022/07/15 15:17:11;;;;;;;2.60;0.25;;;;;;;;;;4733677;30;20048;-58
2022/07/15 15:19:38;;;;;;;0.40;0.20;;;;;;;;;;4734037;30;20052;-60